createdAt,value
2023-01-30T00:00:17.375Z,24.42
2023-01-30T00:01:06.940Z,20.75
2023-01-30T00:01:54.119Z,21.33
2023-01-30T00:02:41.378Z,20.90
2023-01-30T00:03:28.559Z,24.17
2023-01-30T00:04:17.315Z,23.23
2023-01-30T00:05:04.979Z,20.75
2023-01-30T00:05:52.398Z,22.48
2023-01-30T00:06:40.983Z,23.67
2023-01-30T00:07:28.014Z,24.65
2023-01-30T00:08:15.150Z,25.05
2023-01-30T00:09:02.435Z,22.95
2023-01-30T00:09:49.370Z,22.55
2023-01-30T00:10:36.406Z,20.30
2023-01-30T00:11:23.660Z,23.00
2023-01-30T00:12:10.674Z,23.60
2023-01-30T00:12:57.724Z,22.17
2023-01-30T00:13:44.859Z,22.55
2023-01-30T00:14:31.975Z,22.42
2023-01-30T00:15:19.433Z,23.48
2023-01-30T00:16:06.813Z,21.62
2023-01-30T00:16:53.786Z,25.17
2023-01-30T00:17:40.882Z,21.05
2023-01-30T00:18:28.068Z,23.45
2023-01-30T00:19:15.155Z,20.95
2023-01-30T00:20:02.340Z,21.50
2023-01-30T00:20:49.440Z,21.65
2023-01-30T00:21:36.519Z,24.48
2023-01-30T00:22:23.796Z,21.87
2023-01-30T00:23:10.727Z,23.42
2023-01-30T00:24:00.136Z,22.75
2023-01-30T00:24:47.583Z,20.85
2023-01-30T00:25:35.225Z,23.10
2023-01-30T00:26:22.460Z,24.50
2023-01-30T00:27:09.548Z,23.38
2023-01-30T00:27:56.914Z,24.02
2023-01-30T00:28:43.966Z,23.35
2023-01-30T00:29:31.080Z,24.42
2023-01-30T00:30:18.464Z,24.27
2023-01-30T00:31:06.115Z,21.30
2023-01-30T00:31:53.372Z,23.30
2023-01-30T00:32:40.357Z,23.35
2023-01-30T00:33:28.137Z,21.83
2023-01-30T00:34:15.214Z,27.23
2023-01-30T00:35:02.233Z,23.87
2023-01-30T00:35:51.076Z,21.67
2023-01-30T00:36:38.081Z,24.85
2023-01-30T00:37:25.348Z,23.42
2023-01-30T00:38:12.536Z,23.15
2023-01-30T00:38:59.560Z,23.45
2023-01-30T00:39:46.590Z,23.95
2023-01-30T00:40:33.692Z,22.40
2023-01-30T00:41:20.713Z,22.80
2023-01-30T00:42:26.246Z,21.00
2023-01-30T00:43:34.003Z,22.73
2023-01-30T00:44:39.627Z,21.85
2023-01-30T00:45:45.209Z,20.95
2023-01-30T00:46:52.562Z,24.25
2023-01-30T00:47:39.667Z,24.85
2023-01-30T00:48:26.852Z,21.58
2023-01-30T00:49:14.311Z,22.10
2023-01-30T00:50:01.436Z,23.12
2023-01-30T00:50:48.645Z,25.15
2023-01-30T00:51:35.807Z,23.83
2023-01-30T00:52:23.011Z,23.38
2023-01-30T00:53:12.117Z,23.90
2023-01-30T00:53:59.141Z,24.17
2023-01-30T00:54:46.347Z,22.60
2023-01-30T00:55:33.343Z,23.15
2023-01-30T00:56:20.683Z,22.87
2023-01-30T00:57:07.661Z,23.48
2023-01-30T00:57:54.635Z,24.60
2023-01-30T00:58:41.791Z,27.65
2023-01-30T00:59:29.581Z,22.87
2023-01-30T01:00:18.214Z,23.02
2023-01-30T01:01:05.284Z,22.75
2023-01-30T01:01:52.513Z,23.17
2023-01-30T01:02:39.677Z,22.98
2023-01-30T01:03:26.632Z,25.05
2023-01-30T01:04:13.870Z,23.00
2023-01-30T01:05:00.823Z,21.58
2023-01-30T01:05:48.233Z,24.95
2023-01-30T01:06:35.387Z,22.45
2023-01-30T01:07:22.453Z,22.08
2023-01-30T01:08:10.813Z,22.35
2023-01-30T01:08:57.864Z,23.58
2023-01-30T01:09:44.806Z,25.48
2023-01-30T01:10:32.248Z,22.00
2023-01-30T01:11:24.945Z,22.40
2023-01-30T01:12:12.153Z,23.40
2023-01-30T01:12:59.152Z,23.55
2023-01-30T01:13:46.330Z,23.30
2023-01-30T01:14:33.610Z,23.95
2023-01-30T01:15:22.722Z,22.62
2023-01-30T01:16:09.813Z,22.17
2023-01-30T01:16:56.938Z,22.48
2023-01-30T01:17:43.957Z,22.35
2023-01-30T01:18:31.113Z,23.38
2023-01-30T01:19:18.184Z,25.10
2023-01-30T01:20:06.202Z,22.67
2023-01-30T01:20:53.267Z,25.42
2023-01-30T01:21:40.317Z,23.20
2023-01-30T01:22:27.384Z,21.75
2023-01-30T01:23:14.367Z,24.20
2023-01-30T01:24:01.583Z,22.35
2023-01-30T01:24:48.750Z,22.87
2023-01-30T01:25:35.749Z,22.60
2023-01-30T01:26:22.834Z,23.73
2023-01-30T01:27:09.849Z,24.35
2023-01-30T01:27:56.833Z,24.75
2023-01-30T01:28:43.817Z,20.73
2023-01-30T01:29:30.812Z,23.48
2023-01-30T01:30:18.581Z,21.33
2023-01-30T01:31:13.106Z,26.45
2023-01-30T01:32:00.321Z,23.95
2023-01-30T01:32:47.355Z,24.63
2023-01-30T01:33:34.284Z,23.48
2023-01-30T01:34:21.320Z,21.98
2023-01-30T01:35:08.752Z,22.70
2023-01-30T01:35:57.020Z,24.10
2023-01-30T01:36:59.428Z,25.35
2023-01-30T01:37:47.017Z,21.10
2023-01-30T01:38:34.499Z,22.17
2023-01-30T01:39:21.783Z,23.12
2023-01-30T01:40:29.978Z,23.10
2023-01-30T01:41:18.964Z,25.23
2023-01-30T01:42:05.970Z,23.52
2023-01-30T01:42:53.115Z,20.17
2023-01-30T01:44:06.745Z,23.50
2023-01-30T01:45:04.814Z,23.90
2023-01-30T01:46:00.521Z,22.92
2023-01-30T01:46:55.142Z,21.62
2023-01-30T01:48:09.075Z,22.48
2023-01-30T01:48:58.280Z,20.92
2023-01-30T01:49:45.503Z,23.70
2023-01-30T01:50:41.236Z,22.58
2023-01-30T01:51:40.740Z,22.87
2023-01-30T01:52:27.928Z,22.58
2023-01-30T01:53:17.070Z,21.12
2023-01-30T01:54:10.518Z,24.70
2023-01-30T01:55:00.395Z,25.05
2023-01-30T01:55:49.651Z,19.30
2023-01-30T01:56:39.619Z,22.75
2023-01-30T01:57:40.382Z,23.52
2023-01-30T01:59:39.719Z,22.20
2023-01-30T02:00:27.059Z,23.27
2023-01-30T02:01:14.287Z,21.33
2023-01-30T02:02:06.607Z,23.02
2023-01-30T02:03:00.881Z,22.13
2023-01-30T02:03:51.464Z,22.60
2023-01-30T02:05:46.957Z,20.70
2023-01-30T02:06:34.007Z,20.85
2023-01-30T02:07:22.380Z,25.20
2023-01-30T02:08:18.849Z,20.58
2023-01-30T02:09:08.231Z,23.55
2023-01-30T02:09:55.736Z,23.75
2023-01-30T02:11:07.321Z,24.12
2023-01-30T02:11:57.707Z,24.70
2023-01-30T02:12:45.211Z,23.40
2023-01-30T02:13:32.945Z,22.83
2023-01-30T02:14:21.267Z,23.50
2023-01-30T02:15:08.647Z,24.40
2023-01-30T02:16:00.193Z,23.90
2023-01-30T02:16:47.247Z,23.08
2023-01-30T02:17:34.279Z,22.45
2023-01-30T02:18:21.724Z,24.75
2023-01-30T02:19:30.855Z,26.67
2023-01-30T02:20:45.860Z,24.02
2023-01-30T02:22:07.198Z,21.92
2023-01-30T02:23:31.245Z,20.33
2023-01-30T02:24:33.421Z,22.02
2023-01-30T02:25:41.739Z,24.02
2023-01-30T02:26:57.597Z,24.25
2023-01-30T02:28:05.960Z,22.02
2023-01-30T02:29:13.962Z,24.87
2023-01-30T02:30:16.193Z,20.23
2023-01-30T02:31:31.150Z,22.37
2023-01-30T02:32:26.885Z,22.25
2023-01-30T02:33:29.645Z,23.73
2023-01-30T02:34:36.170Z,24.08
2023-01-30T02:35:50.326Z,23.45
2023-01-30T02:37:30.208Z,23.30
2023-01-30T02:38:36.875Z,21.58
2023-01-30T02:39:39.036Z,22.17
2023-01-30T02:40:37.277Z,24.35
2023-01-30T02:41:36.400Z,24.80
2023-01-30T02:42:39.089Z,22.75
2023-01-30T02:43:55.144Z,23.85
2023-01-30T02:45:23.848Z,22.95
2023-01-30T02:46:30.711Z,21.73
2023-01-30T02:47:25.040Z,22.58
2023-01-30T02:48:20.360Z,23.65
2023-01-30T02:49:15.260Z,26.58
2023-01-30T02:50:29.980Z,20.20
2023-01-30T02:51:26.915Z,23.27
2023-01-30T02:52:15.828Z,22.92
2023-01-30T02:53:05.940Z,27.27
2023-01-30T02:53:53.800Z,24.92
2023-01-30T02:54:41.035Z,23.20
2023-01-30T02:55:29.451Z,26.02
2023-01-30T02:56:16.629Z,25.42
2023-01-30T02:57:03.718Z,24.12
2023-01-30T02:57:50.884Z,23.80
2023-01-30T02:58:44.548Z,26.00
2023-01-30T02:59:42.682Z,26.45
2023-01-30T03:00:44.549Z,26.15
2023-01-30T03:01:47.347Z,29.23
2023-01-30T03:03:11.265Z,25.02
2023-01-30T03:04:01.112Z,25.70
2023-01-30T03:05:03.185Z,25.85
2023-01-30T03:06:20.715Z,22.80
2023-01-30T03:07:49.396Z,23.35
2023-01-30T03:08:54.372Z,24.20
2023-01-30T03:10:38.825Z,23.05
2023-01-30T03:11:31.927Z,23.95
2023-01-30T03:12:42.005Z,24.98
2023-01-30T03:13:52.749Z,22.92
2023-01-30T03:14:42.935Z,21.98
2023-01-30T03:15:42.541Z,29.37
2023-01-30T03:16:39.138Z,26.30
2023-01-30T03:17:27.425Z,25.02
2023-01-30T03:18:14.772Z,25.95
2023-01-30T03:19:03.747Z,24.17
2023-01-30T03:19:52.185Z,28.02
2023-01-30T03:20:40.582Z,24.15
2023-01-30T03:21:27.635Z,26.90
2023-01-30T03:22:14.680Z,28.55
2023-01-30T03:23:01.744Z,29.20
2023-01-30T03:23:48.884Z,27.33
2023-01-30T03:24:36.094Z,26.08
2023-01-30T03:25:27.123Z,26.62
2023-01-30T03:26:21.542Z,28.90
2023-01-30T03:27:12.196Z,26.75
2023-01-30T03:28:49.274Z,24.70
2023-01-30T03:29:36.550Z,26.40
2023-01-30T03:30:25.719Z,28.95
2023-01-30T03:31:12.879Z,28.58
2023-01-30T03:32:00.225Z,27.48
2023-01-30T03:32:47.317Z,27.52
2023-01-30T03:33:34.226Z,27.27
2023-01-30T03:34:21.285Z,29.83
2023-01-30T03:35:08.671Z,29.27
2023-01-30T03:35:55.766Z,30.30
2023-01-30T03:36:42.915Z,28.30
2023-01-30T03:37:30.153Z,28.35
2023-01-30T03:38:18.477Z,31.00
2023-01-30T03:39:05.603Z,29.02
2023-01-30T03:39:52.589Z,26.65
2023-01-30T03:40:39.751Z,30.55
2023-01-30T03:41:26.704Z,29.27
2023-01-30T03:42:13.778Z,29.23
2023-01-30T03:43:00.858Z,30.27
2023-01-30T03:43:47.740Z,29.23
2023-01-30T03:44:34.793Z,28.17
2023-01-30T03:45:21.839Z,29.37
2023-01-30T03:46:08.961Z,31.00
2023-01-30T03:46:55.954Z,30.25
2023-01-30T03:47:42.940Z,30.50
2023-01-30T03:48:29.955Z,33.83
2023-01-30T03:49:16.945Z,34.28
2023-01-30T03:50:04.359Z,30.27
2023-01-30T03:50:51.377Z,31.60
2023-01-30T03:51:38.390Z,29.23
2023-01-30T03:52:25.469Z,30.08
2023-01-30T03:53:12.538Z,33.85
2023-01-30T03:53:59.562Z,33.08
2023-01-30T03:54:46.752Z,32.42
2023-01-30T03:55:33.761Z,31.20
2023-01-30T03:56:20.869Z,31.23
2023-01-30T03:57:08.164Z,33.17
2023-01-30T03:57:57.111Z,30.88
2023-01-30T03:58:44.138Z,33.35
2023-01-30T03:59:31.180Z,30.20
2023-01-30T04:00:21.348Z,28.85
2023-01-30T04:01:08.408Z,29.25
2023-01-30T04:01:55.436Z,27.60
2023-01-30T04:02:42.707Z,31.42
2023-01-30T04:03:29.845Z,31.23
2023-01-30T04:04:16.882Z,29.75
2023-01-30T04:05:04.144Z,31.73
2023-01-30T04:05:51.099Z,32.78
2023-01-30T04:06:40.416Z,29.48
2023-01-30T04:07:29.973Z,31.60
2023-01-30T04:08:16.975Z,33.33
2023-01-30T04:09:04.089Z,29.70
2023-01-30T04:09:51.183Z,33.67
2023-01-30T04:10:38.260Z,29.02
2023-01-30T04:11:25.356Z,31.00
2023-01-30T04:12:12.281Z,32.35
2023-01-30T04:12:59.239Z,32.05
2023-01-30T04:13:46.297Z,36.08
2023-01-30T04:14:33.446Z,31.50
2023-01-30T04:15:20.656Z,36.25
2023-01-30T04:16:18.340Z,33.13
2023-01-30T04:17:05.482Z,33.72
2023-01-30T04:17:52.567Z,33.70
2023-01-30T04:18:39.562Z,35.50
2023-01-30T04:19:26.567Z,34.33
2023-01-30T04:20:13.874Z,30.98
2023-01-30T04:21:00.895Z,31.98
2023-01-30T04:21:47.990Z,35.05
2023-01-30T04:22:35.111Z,33.85
2023-01-30T04:23:22.187Z,34.00
2023-01-30T04:24:09.321Z,34.67
2023-01-30T04:24:56.494Z,32.50
2023-01-30T04:25:46.931Z,32.38
2023-01-30T04:26:33.926Z,31.20
2023-01-30T04:27:21.028Z,34.45
2023-01-30T04:28:08.164Z,31.70
2023-01-30T04:28:55.145Z,33.28
2023-01-30T04:29:42.787Z,33.95
2023-01-30T04:30:30.121Z,32.13
2023-01-30T04:31:17.345Z,32.42
2023-01-30T04:32:04.698Z,35.88
2023-01-30T04:32:51.850Z,31.58
2023-01-30T04:33:40.348Z,31.25
2023-01-30T04:34:27.448Z,33.22
2023-01-30T04:35:14.550Z,32.60
2023-01-30T04:36:03.347Z,32.30
2023-01-30T04:36:50.453Z,42.00
2023-01-30T04:37:37.589Z,32.67
2023-01-30T04:38:27.056Z,33.35
2023-01-30T04:39:14.024Z,34.85
2023-01-30T04:40:01.075Z,34.33
2023-01-30T04:40:55.494Z,36.45
2023-01-30T04:41:42.422Z,33.72
2023-01-30T04:42:29.389Z,34.15
2023-01-30T04:43:16.499Z,32.47
2023-01-30T04:44:03.633Z,37.10
2023-01-30T04:44:50.700Z,32.53
2023-01-30T04:45:37.641Z,31.65
2023-01-30T04:46:24.696Z,34.35
2023-01-30T04:47:11.811Z,32.45
2023-01-30T04:47:58.881Z,35.35
2023-01-30T04:48:45.925Z,35.70
2023-01-30T04:49:32.935Z,31.95
2023-01-30T04:50:19.931Z,32.72
2023-01-30T04:51:07.404Z,32.97
2023-01-30T04:51:54.419Z,33.92
2023-01-30T04:52:41.507Z,33.33
2023-01-30T04:53:28.484Z,37.08
2023-01-30T04:54:15.482Z,33.08
2023-01-30T04:55:02.489Z,32.22
2023-01-30T04:55:52.723Z,32.33
2023-01-30T04:56:39.768Z,29.98
2023-01-30T04:57:26.789Z,32.42
2023-01-30T04:58:13.941Z,32.63
2023-01-30T04:59:00.942Z,34.70
2023-01-30T04:59:48.055Z,31.23
2023-01-30T05:00:35.152Z,31.45
2023-01-30T05:01:34.214Z,31.33
2023-01-30T05:02:23.033Z,33.30
2023-01-30T05:03:10.862Z,34.88
2023-01-30T05:03:58.103Z,35.28
2023-01-30T05:04:45.047Z,33.38
2023-01-30T05:05:32.043Z,30.17
2023-01-30T05:06:19.184Z,34.20
2023-01-30T05:07:06.350Z,32.22
2023-01-30T05:07:53.580Z,32.50
2023-01-30T05:08:40.626Z,31.45
2023-01-30T05:09:27.548Z,31.95
2023-01-30T05:10:14.465Z,32.15
2023-01-30T05:11:01.591Z,32.20
2023-01-30T05:11:48.565Z,31.25
2023-01-30T05:12:35.607Z,31.05
2023-01-30T05:13:22.698Z,32.95
2023-01-30T05:14:09.882Z,38.38
2023-01-30T05:14:57.058Z,32.35
2023-01-30T05:15:45.580Z,33.08
2023-01-30T05:16:32.636Z,34.95
2023-01-30T05:17:19.684Z,36.88
2023-01-30T05:18:06.609Z,35.75
2023-01-30T05:18:54.078Z,35.45
2023-01-30T05:19:41.127Z,33.72
2023-01-30T05:20:28.333Z,37.47
2023-01-30T05:21:18.313Z,30.35
2023-01-30T05:22:05.442Z,31.70
2023-01-30T05:22:52.740Z,36.65
2023-01-30T05:23:39.991Z,33.67
2023-01-30T05:24:27.047Z,36.65
2023-01-30T05:25:14.249Z,35.10
2023-01-30T05:26:02.271Z,33.95
2023-01-30T05:26:49.363Z,33.67
2023-01-30T05:27:36.392Z,30.02
2023-01-30T05:28:23.391Z,30.98
2023-01-30T05:29:10.874Z,37.83
2023-01-30T05:29:57.926Z,34.17
2023-01-30T05:30:46.390Z,31.58
2023-01-30T05:31:35.848Z,33.33
2023-01-30T05:32:22.895Z,32.78
2023-01-30T05:33:09.980Z,34.45
2023-01-30T05:33:57.054Z,30.90
2023-01-30T05:34:44.188Z,34.15
2023-01-30T05:35:31.265Z,34.60
2023-01-30T05:36:19.812Z,33.42
2023-01-30T05:37:07.099Z,37.38
2023-01-30T05:37:54.111Z,34.70
2023-01-30T05:38:42.555Z,37.45
2023-01-30T05:39:29.583Z,35.65
2023-01-30T05:40:16.790Z,33.80
2023-01-30T05:41:08.100Z,34.67
2023-01-30T05:41:55.174Z,31.50
2023-01-30T05:42:42.136Z,33.28
2023-01-30T05:43:30.207Z,35.90
2023-01-30T05:44:17.317Z,36.28
2023-01-30T05:45:04.680Z,33.60
2023-01-30T05:45:56.222Z,33.75
2023-01-30T05:46:43.382Z,39.47
2023-01-30T05:47:30.381Z,32.47
2023-01-30T05:48:17.293Z,35.53
2023-01-30T05:49:04.549Z,33.05
2023-01-30T05:49:51.536Z,37.13
2023-01-30T05:50:38.866Z,35.53
2023-01-30T05:51:27.462Z,36.55
2023-01-30T05:52:14.432Z,36.20
2023-01-30T05:53:01.358Z,34.20
2023-01-30T05:53:48.672Z,34.38
2023-01-30T05:54:35.828Z,35.38
2023-01-30T05:55:22.803Z,34.72
2023-01-30T05:56:09.909Z,33.92
2023-01-30T05:56:57.022Z,33.50
2023-01-30T05:57:44.090Z,33.72
2023-01-30T05:58:31.647Z,35.00
2023-01-30T05:59:21.309Z,35.70
2023-01-30T06:00:10.843Z,35.72
2023-01-30T06:01:05.500Z,33.17
2023-01-30T06:01:52.619Z,34.78
2023-01-30T06:02:39.853Z,35.95
2023-01-30T06:03:26.856Z,35.15
2023-01-30T06:04:13.783Z,34.35
2023-01-30T06:05:00.902Z,31.12
2023-01-30T06:05:47.971Z,36.47
2023-01-30T06:06:35.189Z,34.97
2023-01-30T06:07:22.218Z,31.35
2023-01-30T06:08:09.212Z,34.63
2023-01-30T06:08:57.038Z,31.90
2023-01-30T06:09:44.036Z,34.83
2023-01-30T06:10:31.142Z,34.95
2023-01-30T06:11:18.635Z,37.33
2023-01-30T06:12:07.233Z,39.42
2023-01-30T06:12:54.341Z,33.50
2023-01-30T06:13:42.319Z,35.75
2023-01-30T06:14:29.504Z,32.72
2023-01-30T06:15:16.806Z,36.10
2023-01-30T06:16:04.326Z,37.60
2023-01-30T06:16:51.524Z,34.83
2023-01-30T06:17:43.423Z,34.63
2023-01-30T06:18:30.463Z,35.42
2023-01-30T06:19:17.521Z,33.92
2023-01-30T06:20:05.125Z,36.65
2023-01-30T06:20:53.499Z,36.08
2023-01-30T06:21:40.542Z,37.25
2023-01-30T06:22:27.579Z,36.25
2023-01-30T06:23:14.775Z,38.13
2023-01-30T06:24:02.636Z,35.75
2023-01-30T06:24:49.772Z,35.67
2023-01-30T06:25:36.838Z,36.70
2023-01-30T06:26:23.853Z,37.30
2023-01-30T06:27:10.983Z,34.58
2023-01-30T06:27:58.075Z,35.35
2023-01-30T06:28:45.284Z,37.92
2023-01-30T06:29:32.224Z,36.13
2023-01-30T06:30:19.436Z,34.65
2023-01-30T06:31:09.721Z,36.72
2023-01-30T06:31:56.724Z,36.83
2023-01-30T06:32:43.771Z,33.97
2023-01-30T06:33:30.957Z,33.55
2023-01-30T06:34:18.002Z,35.95
2023-01-30T06:35:05.664Z,34.97
2023-01-30T06:35:53.180Z,37.58
2023-01-30T06:36:40.454Z,34.53
2023-01-30T06:37:27.480Z,34.50
2023-01-30T06:38:14.592Z,36.38
2023-01-30T06:39:01.876Z,35.83
2023-01-30T06:39:49.061Z,36.25
2023-01-30T06:40:36.053Z,31.52
2023-01-30T06:41:23.070Z,35.90
2023-01-30T06:42:10.141Z,38.47
2023-01-30T06:42:57.114Z,35.92
2023-01-30T06:43:44.123Z,37.10
2023-01-30T06:44:31.236Z,36.17
2023-01-30T06:45:19.876Z,37.80
2023-01-30T06:46:07.240Z,38.35
2023-01-30T06:46:54.460Z,35.67
2023-01-30T06:47:54.623Z,36.78
2023-01-30T06:48:41.549Z,29.08
2023-01-30T06:49:28.957Z,37.28
2023-01-30T06:50:18.172Z,33.15
2023-01-30T06:51:05.267Z,35.08
2023-01-30T06:51:52.187Z,35.63
2023-01-30T06:52:42.994Z,35.30
2023-01-30T06:53:33.054Z,33.47
2023-01-30T06:54:20.039Z,37.97
2023-01-30T06:55:08.506Z,37.30
2023-01-30T06:55:55.557Z,39.72
2023-01-30T06:56:42.535Z,35.50
2023-01-30T06:57:30.028Z,33.08
2023-01-30T06:58:17.146Z,35.63
2023-01-30T06:59:04.189Z,33.83
2023-01-30T06:59:51.185Z,33.63
2023-01-30T07:00:40.545Z,34.55
2023-01-30T07:01:29.016Z,35.13
2023-01-30T07:02:16.168Z,37.17
2023-01-30T07:03:03.359Z,37.17
2023-01-30T07:03:50.425Z,34.53
2023-01-30T07:04:37.383Z,37.17
2023-01-30T07:05:24.543Z,36.67
2023-01-30T07:06:11.654Z,36.50
2023-01-30T07:06:58.827Z,35.67
2023-01-30T07:07:45.820Z,35.15
2023-01-30T07:08:32.908Z,34.25
2023-01-30T07:09:19.899Z,32.97
2023-01-30T07:10:09.176Z,34.80
2023-01-30T07:10:56.623Z,34.67
2023-01-30T07:11:43.544Z,37.20
2023-01-30T07:12:30.637Z,33.03
2023-01-30T07:13:17.738Z,34.35
2023-01-30T07:14:06.361Z,32.28
2023-01-30T07:14:54.612Z,37.10
2023-01-30T07:15:41.813Z,35.22
2023-01-30T07:16:29.596Z,34.03
2023-01-30T07:17:17.563Z,33.42
2023-01-30T07:18:04.538Z,36.72
2023-01-30T07:18:51.700Z,34.05
2023-01-30T07:19:39.301Z,36.53
2023-01-30T07:20:26.380Z,35.70
2023-01-30T07:21:14.043Z,35.53
2023-01-30T07:22:02.473Z,36.35
2023-01-30T07:22:54.668Z,32.47
2023-01-30T07:23:41.855Z,37.13
2023-01-30T07:24:28.878Z,30.67
2023-01-30T07:25:17.025Z,31.80
2023-01-30T07:26:07.403Z,30.62
2023-01-30T07:26:54.445Z,30.83
2023-01-30T07:27:41.443Z,32.15
2023-01-30T07:28:28.404Z,35.15
2023-01-30T07:29:15.726Z,35.45
2023-01-30T07:30:03.025Z,31.15
2023-01-30T07:30:53.131Z,31.62
2023-01-30T07:31:40.427Z,31.95
2023-01-30T07:32:27.472Z,31.05
2023-01-30T07:33:14.518Z,33.38
2023-01-30T07:34:01.598Z,29.87
2023-01-30T07:34:48.899Z,30.77
2023-01-30T07:35:37.298Z,33.22
2023-01-30T07:36:24.851Z,30.80
2023-01-30T07:37:11.846Z,34.83
2023-01-30T07:37:58.829Z,30.15
2023-01-30T07:38:49.435Z,28.85
2023-01-30T07:40:24.673Z,29.15
2023-01-30T07:41:11.670Z,30.58
2023-01-30T07:42:00.961Z,31.98
2023-01-30T07:42:58.888Z,27.85
2023-01-30T07:43:45.794Z,33.30
2023-01-30T07:44:34.170Z,27.70
2023-01-30T07:45:21.339Z,32.05
2023-01-30T07:46:08.410Z,28.90
2023-01-30T07:46:55.509Z,31.33
2023-01-30T07:47:42.633Z,28.80
2023-01-30T07:48:31.051Z,31.25
2023-01-30T07:49:46.701Z,32.53
2023-01-30T07:50:33.603Z,29.00
2023-01-30T07:51:20.542Z,30.48
2023-01-30T07:52:07.404Z,31.35
2023-01-30T07:52:54.341Z,30.10
2023-01-30T07:53:41.203Z,29.30
2023-01-30T07:54:28.172Z,30.73
2023-01-30T07:55:15.250Z,31.75
2023-01-30T07:56:10.396Z,31.05
2023-01-30T07:56:57.352Z,28.40
2023-01-30T07:57:44.297Z,30.88
2023-01-30T07:58:31.220Z,30.17
2023-01-30T07:59:18.213Z,31.87
2023-01-30T08:00:05.693Z,33.33
2023-01-30T08:00:55.558Z,29.40
2023-01-30T08:01:44.442Z,31.17
2023-01-30T08:02:31.368Z,32.25
2023-01-30T08:03:18.632Z,28.95
2023-01-30T08:04:05.660Z,32.92
2023-01-30T08:04:52.631Z,29.20
2023-01-30T08:05:39.541Z,32.55
2023-01-30T08:06:27.142Z,31.08
2023-01-30T08:07:14.047Z,29.20
2023-01-30T08:08:01.189Z,33.55
2023-01-30T08:08:48.129Z,31.12
2023-01-30T08:09:35.114Z,34.05
2023-01-30T08:10:22.045Z,28.27
2023-01-30T08:11:09.491Z,32.20
2023-01-30T08:11:56.405Z,29.67
2023-01-30T08:12:43.654Z,32.50
2023-01-30T08:13:30.589Z,31.75
2023-01-30T08:14:17.570Z,31.87
2023-01-30T08:15:04.861Z,31.62
2023-01-30T08:15:51.751Z,32.88
2023-01-30T08:16:39.229Z,29.98
2023-01-30T08:17:26.241Z,31.95
2023-01-30T08:18:13.239Z,34.75
2023-01-30T08:19:00.342Z,29.77
2023-01-30T08:19:47.223Z,30.42
2023-01-30T08:20:34.263Z,35.08
2023-01-30T08:21:21.203Z,33.63
2023-01-30T08:22:08.055Z,35.67
2023-01-30T08:22:55.085Z,34.15
2023-01-30T08:23:41.937Z,30.45
2023-01-30T08:24:28.831Z,31.05
2023-01-30T08:25:15.836Z,32.25
2023-01-30T08:26:04.906Z,32.17
2023-01-30T08:26:51.871Z,32.08
2023-01-30T08:27:38.766Z,31.55
2023-01-30T08:28:26.059Z,31.37
2023-01-30T08:29:12.937Z,30.20
2023-01-30T08:29:59.854Z,31.30
2023-01-30T08:30:46.749Z,31.67
2023-01-30T08:31:33.739Z,33.95
2023-01-30T08:32:20.644Z,31.40
2023-01-30T08:33:07.678Z,34.00
2023-01-30T08:33:54.617Z,33.58
2023-01-30T08:34:41.528Z,31.52
2023-01-30T08:35:28.477Z,33.50
2023-01-30T08:36:15.375Z,31.37
2023-01-30T08:37:02.895Z,30.20
2023-01-30T08:37:49.728Z,30.67
2023-01-30T08:38:36.648Z,32.55
2023-01-30T08:39:23.852Z,31.67
2023-01-30T08:40:13.599Z,34.75
2023-01-30T08:41:01.286Z,33.88
2023-01-30T08:41:48.400Z,33.50
2023-01-30T08:42:35.445Z,33.05
2023-01-30T08:43:22.375Z,31.75
2023-01-30T08:44:13.167Z,34.53
2023-01-30T08:45:00.188Z,31.40
2023-01-30T08:45:47.058Z,31.92
2023-01-30T08:46:33.983Z,30.92
2023-01-30T08:47:22.402Z,33.53
2023-01-30T08:48:10.347Z,35.50
2023-01-30T08:48:57.201Z,36.03
2023-01-30T08:49:44.095Z,34.80
2023-01-30T08:50:32.151Z,32.78
2023-01-30T08:51:19.101Z,31.62
2023-01-30T08:52:06.011Z,33.33
2023-01-30T08:52:53.006Z,34.90
2023-01-30T08:53:39.860Z,31.08
2023-01-30T08:54:26.859Z,31.90
2023-01-30T08:55:13.722Z,31.02
2023-01-30T08:56:00.584Z,31.58
2023-01-30T08:56:47.527Z,32.78
2023-01-30T08:57:34.413Z,34.90
2023-01-30T08:58:22.047Z,32.67
2023-01-30T08:59:08.996Z,35.65
2023-01-30T08:59:55.883Z,32.70
2023-01-30T09:00:45.851Z,32.53
2023-01-30T09:01:33.996Z,27.90
2023-01-30T09:02:21.043Z,30.90
2023-01-30T09:03:08.008Z,32.17
2023-01-30T09:03:54.843Z,31.42
2023-01-30T09:04:41.783Z,30.40
2023-01-30T09:05:30.175Z,29.33
2023-01-30T09:06:17.094Z,29.20
2023-01-30T09:07:06.107Z,31.08
2023-01-30T09:07:52.951Z,31.37
2023-01-30T09:08:39.901Z,29.55
2023-01-30T09:09:26.969Z,29.30
2023-01-30T09:10:14.016Z,30.60
2023-01-30T09:11:02.409Z,28.52
2023-01-30T09:11:49.321Z,29.35
2023-01-30T09:12:38.326Z,31.70
2023-01-30T09:13:25.707Z,29.40
2023-01-30T09:14:12.602Z,29.33
2023-01-30T09:15:00.645Z,30.65
2023-01-30T09:15:47.486Z,28.83
2023-01-30T09:16:34.496Z,27.62
2023-01-30T09:17:21.912Z,31.48
2023-01-30T09:18:10.880Z,26.23
2023-01-30T09:18:57.709Z,29.63
2023-01-30T09:19:44.650Z,30.52
2023-01-30T09:20:31.573Z,27.62
2023-01-30T09:21:18.488Z,28.12
2023-01-30T09:22:05.618Z,27.15
2023-01-30T09:22:52.637Z,27.73
2023-01-30T09:23:40.005Z,28.02
2023-01-30T09:24:27.963Z,32.72
2023-01-30T09:25:14.986Z,27.40
2023-01-30T09:26:02.597Z,28.90
2023-01-30T09:26:49.537Z,25.75
2023-01-30T09:27:37.190Z,27.70
2023-01-30T09:28:24.158Z,29.20
2023-01-30T09:29:14.422Z,26.92
2023-01-30T09:30:01.337Z,31.08
2023-01-30T09:30:48.329Z,29.92
2023-01-30T09:31:35.282Z,29.12
2023-01-30T09:32:23.676Z,30.55
2023-01-30T09:33:10.997Z,27.92
2023-01-30T09:33:57.875Z,26.58
2023-01-30T09:34:44.834Z,26.33
2023-01-30T09:35:31.759Z,26.98
2023-01-30T09:36:18.640Z,29.08
2023-01-30T09:37:05.557Z,27.58
2023-01-30T09:37:53.742Z,26.30
2023-01-30T09:38:40.644Z,28.92
2023-01-30T09:39:28.365Z,29.83
2023-01-30T09:40:17.984Z,26.67
2023-01-30T09:41:36.931Z,27.87
2023-01-30T09:42:46.384Z,27.70
2023-01-30T09:43:38.916Z,27.65
2023-01-30T09:44:42.134Z,29.45
2023-01-30T09:45:29.251Z,29.42
2023-01-30T09:46:47.256Z,28.45
2023-01-30T09:47:40.799Z,26.30
2023-01-30T09:48:35.240Z,26.80
2023-01-30T09:49:33.934Z,28.48
2023-01-30T09:50:36.409Z,27.77
2023-01-30T09:52:07.694Z,31.12
2023-01-30T09:54:12.763Z,27.65
2023-01-30T09:55:10.328Z,28.85
2023-01-30T09:55:59.320Z,28.40
2023-01-30T09:56:46.637Z,29.50
2023-01-30T09:57:33.763Z,27.55
2023-01-30T09:58:25.150Z,28.23
2023-01-30T09:59:21.941Z,25.55
2023-01-30T10:00:36.188Z,29.58
2023-01-30T10:01:29.717Z,27.92
2023-01-30T10:02:30.491Z,26.98
2023-01-30T10:03:26.169Z,27.60
2023-01-30T10:04:25.585Z,25.75
2023-01-30T10:05:13.017Z,28.20
2023-01-30T10:06:06.351Z,28.27
2023-01-30T10:07:15.416Z,26.90
2023-01-30T10:08:20.683Z,28.08
2023-01-30T10:09:29.517Z,29.33
2023-01-30T10:10:35.464Z,27.95
2023-01-30T10:11:48.082Z,27.02
2023-01-30T10:13:12.605Z,26.50
2023-01-30T10:14:14.723Z,28.60
2023-01-30T10:15:15.054Z,28.50
2023-01-30T10:16:12.607Z,27.13
2023-01-30T10:17:33.192Z,27.50
2023-01-30T10:18:44.644Z,30.17
2023-01-30T10:19:57.728Z,26.87
2023-01-30T10:21:09.720Z,26.48
2023-01-30T10:22:02.990Z,26.30
2023-01-30T10:23:13.145Z,30.30
2023-01-30T10:24:20.587Z,25.33
2023-01-30T10:25:13.742Z,27.25
2023-01-30T10:26:12.047Z,27.92
2023-01-30T10:26:58.989Z,28.58
2023-01-30T10:27:56.191Z,28.20
2023-01-30T10:29:06.770Z,27.75
2023-01-30T10:29:59.576Z,29.05
2023-01-30T10:30:48.765Z,28.90
2023-01-30T10:31:48.308Z,29.42
2023-01-30T10:32:46.824Z,25.40
2023-01-30T10:33:37.982Z,26.67
2023-01-30T10:34:38.012Z,29.20
2023-01-30T10:35:30.598Z,28.52
2023-01-30T10:36:25.646Z,26.73
2023-01-30T10:37:36.669Z,27.87
2023-01-30T10:39:26.279Z,30.37
2023-01-30T10:40:13.168Z,29.02
2023-01-30T10:41:27.187Z,25.85
2023-01-30T10:42:20.132Z,26.40
2023-01-30T10:43:37.248Z,27.02
2023-01-30T10:44:24.425Z,26.30
2023-01-30T10:45:20.685Z,28.02
2023-01-30T10:46:10.828Z,25.17
2023-01-30T10:47:13.060Z,26.55
2023-01-30T10:48:26.453Z,28.00
2023-01-30T10:49:39.532Z,26.87
2023-01-30T10:50:51.401Z,30.30
2023-01-30T10:52:01.585Z,26.75
2023-01-30T10:53:05.572Z,25.80
2023-01-30T10:53:58.032Z,26.62
2023-01-30T10:55:19.892Z,31.23
2023-01-30T10:56:34.934Z,27.60